Alpine Village, Colorado
Current Conditions -  °F | °C
As of 10:54 PM on Wednesday 22 Oct 2014 (Local Time) from K7BM Reporting Station
Clear Clear  
Wind Chill: 40°   Ceiling: Unl
Heat Index: 43°   Visibility: 10mi
Dew Point: 28°   Wind: 5mph
Humidity: 57%   Direction: 300°WNW
Pressure: 30.37"   Gusts: NA
Location:  38.7194°N, 106.276°W
Report Text: K7BM 230454Z AUTO 30004KT 10SM CLR 06/M02 A3037 RMK AO2
Loading
Personal Weather Stations






























Interactive Weather Map New forecast layout! Learn more

10-Day Weather Forecast

Advertisements
Track Severe Weather on mobile